sensor_id;sensor_type;location;lat;lon;timestamp;temperature;humidity
54518;DHT22;40423;53.176;6.002;2023-07-13T00:00:21;18.10;99.90
54518;DHT22;40423;53.176;6.002;2023-07-13T00:02:47;18.10;99.90
54518;DHT22;40423;53.176;6.002;2023-07-13T00:05:13;18.10;99.90
54518;DHT22;40423;53.176;6.002;2023-07-13T00:07:39;18.00;99.90
54518;DHT22;40423;53.176;6.002;2023-07-13T00:10:05;18.10;99.90
54518;DHT22;40423;53.176;6.002;2023-07-13T00:12:37;18.00;99.90
54518;DHT22;40423;53.176;6.002;2023-07-13T00:15:11;18.00;99.90
54518;DHT22;40423;53.176;6.002;2023-07-13T00:17:37;18.00;99.90
54518;DHT22;40423;53.176;6.002;2023-07-13T00:20:05;18.00;99.90
54518;DHT22;40423;53.176;6.002;2023-07-13T00:22:31;18.00;99.90
54518;DHT22;40423;53.176;6.002;2023-07-13T00:24:56;17.90;99.90
54518;DHT22;40423;53.176;6.002;2023-07-13T00:27:22;18.00;99.90
54518;DHT22;40423;53.176;6.002;2023-07-13T00:29:48;18.00;99.90
54518;DHT22;40423;53.176;6.002;2023-07-13T00:32:14;18.00;99.90
54518;DHT22;40423;53.176;6.002;2023-07-13T00:34:40;17.90;99.90
54518;DHT22;40423;53.176;6.002;2023-07-13T00:37:06;17.90;99.90
54518;DHT22;40423;53.176;6.002;2023-07-13T00:39:35;17.90;99.90
54518;DHT22;40423;53.176;6.002;2023-07-13T00:42:02;17.90;99.90
54518;DHT22;40423;53.176;6.002;2023-07-13T00:44:28;17.90;99.90
54518;DHT22;40423;53.176;6.002;2023-07-13T00:46:53;17.90;99.90
54518;DHT22;40423;53.176;6.002;2023-07-13T00:49:23;17.90;99.90
54518;DHT22;40423;53.176;6.002;2023-07-13T00:51:53;17.80;99.90
54518;DHT22;40423;53.176;6.002;2023-07-13T00:54:37;17.90;99.90
54518;DHT22;40423;53.176;6.002;2023-07-13T00:57:06;17.90;99.90
54518;DHT22;40423;53.176;6.002;2023-07-13T00:59:34;17.80;99.90
54518;DHT22;40423;53.176;6.002;2023-07-13T01:02:01;17.80;99.90
54518;DHT22;40423;53.176;6.002;2023-07-13T01:04:27;17.80;99.90
54518;DHT22;40423;53.176;6.002;2023-07-13T01:06:53;17.80;99.90
54518;DHT22;40423;53.176;6.002;2023-07-13T01:09:20;17.80;99.90
54518;DHT22;40423;53.176;6.002;2023-07-13T01:11:46;17.80;99.90
54518;DHT22;40423;53.176;6.002;2023-07-13T01:14:13;17.80;99.90
54518;DHT22;40423;53.176;6.002;2023-07-13T01:16:41;17.80;99.90
54518;DHT22;40423;53.176;6.002;2023-07-13T01:19:44;17.80;99.90
54518;DHT22;40423;53.176;6.002;2023-07-13T01:22:13;17.80;99.90
54518;DHT22;40423;53.176;6.002;2023-07-13T01:24:42;17.80;99.90
54518;DHT22;40423;53.176;6.002;2023-07-13T01:27:10;17.70;99.90
54518;DHT22;40423;53.176;6.002;2023-07-13T01:29:37;17.70;99.90
54518;DHT22;40423;53.176;6.002;2023-07-13T01:32:14;17.70;99.90
54518;DHT22;40423;53.176;6.002;2023-07-13T01:34:40;17.60;99.90
54518;DHT22;40423;53.176;6.002;2023-07-13T01:37:11;17.70;99.90
54518;DHT22;40423;53.176;6.002;2023-07-13T01:39:37;17.60;99.90
54518;DHT22;40423;53.176;6.002;2023-07-13T01:42:03;17.60;99.90
54518;DHT22;40423;53.176;6.002;2023-07-13T01:44:29;17.60;99.90
54518;DHT22;40423;53.176;6.002;2023-07-13T01:46:55;17.60;99.90
54518;DHT22;40423;53.176;6.002;2023-07-13T01:49:21;17.50;99.90
54518;DHT22;40423;53.176;6.002;2023-07-13T01:51:46;17.50;99.90
54518;DHT22;40423;53.176;6.002;2023-07-13T01:54:12;17.50;99.90
54518;DHT22;40423;53.176;6.002;2023-07-13T01:56:38;17.40;99.90
54518;DHT22;40423;53.176;6.002;2023-07-13T01:59:05;17.40;99.90
54518;DHT22;40423;53.176;6.002;2023-07-13T02:01:31;17.40;99.90
54518;DHT22;40423;53.176;6.002;2023-07-13T02:03:56;17.30;99.90
54518;DHT22;40423;53.176;6.002;2023-07-13T02:06:22;17.40;99.90
54518;DHT22;40423;53.176;6.002;2023-07-13T02:08:48;17.30;99.90
54518;DHT22;40423;53.176;6.002;2023-07-13T02:11:14;17.30;99.90
54518;DHT22;40423;53.176;6.002;2023-07-13T02:13:39;17.30;99.90
54518;DHT22;40423;53.176;6.002;2023-07-13T02:16:05;17.30;99.90
54518;DHT22;40423;53.176;6.002;2023-07-13T02:18:32;17.30;99.90
54518;DHT22;40423;53.176;6.002;2023-07-13T02:20:57;17.30;99.90
54518;DHT22;40423;53.176;6.002;2023-07-13T02:23:23;17.30;99.90
54518;DHT22;40423;53.176;6.002;2023-07-13T02:25:49;17.30;99.90
54518;DHT22;40423;53.176;6.002;2023-07-13T02:28:15;17.30;99.90
54518;DHT22;40423;53.176;6.002;2023-07-13T02:30:40;17.30;99.90
54518;DHT22;40423;53.176;6.002;2023-07-13T02:33:06;17.20;99.90
54518;DHT22;40423;53.176;6.002;2023-07-13T02:35:32;17.30;99.90
54518;DHT22;40423;53.176;6.002;2023-07-13T02:37:57;17.20;99.90
54518;DHT22;40423;53.176;6.002;2023-07-13T02:40:23;17.20;99.90
54518;DHT22;40423;53.176;6.002;2023-07-13T02:42:49;17.20;99.90
54518;DHT22;40423;53.176;6.002;2023-07-13T02:45:15;17.20;99.90
54518;DHT22;40423;53.176;6.002;2023-07-13T02:47:41;17.20;99.90
54518;DHT22;40423;53.176;6.002;2023-07-13T02:50:08;17.20;99.90
54518;DHT22;40423;53.176;6.002;2023-07-13T02:52:34;17.10;99.90
54518;DHT22;40423;53.176;6.002;2023-07-13T02:54:59;17.20;99.90
54518;DHT22;40423;53.176;6.002;2023-07-13T02:57:25;17.20;99.90
54518;DHT22;40423;53.176;6.002;2023-07-13T02:59:51;17.20;99.90
54518;DHT22;40423;53.176;6.002;2023-07-13T03:02:17;17.20;99.90
54518;DHT22;40423;53.176;6.002;2023-07-13T03:04:43;17.30;99.90
54518;DHT22;40423;53.176;6.002;2023-07-13T03:07:09;17.30;99.90
54518;DHT22;40423;53.176;6.002;2023-07-13T03:09:35;17.30;99.90
54518;DHT22;40423;53.176;6.002;2023-07-13T03:12:01;17.30;99.90
54518;DHT22;40423;53.176;6.002;2023-07-13T03:14:27;17.30;99.90
54518;DHT22;40423;53.176;6.002;2023-07-13T03:16:53;17.20;99.90
54518;DHT22;40423;53.176;6.002;2023-07-13T03:19:19;17.20;99.90
54518;DHT22;40423;53.176;6.002;2023-07-13T03:21:45;17.30;99.90
54518;DHT22;40423;53.176;6.002;2023-07-13T03:24:10;17.20;99.90
54518;DHT22;40423;53.176;6.002;2023-07-13T03:26:36;17.20;99.90
54518;DHT22;40423;53.176;6.002;2023-07-13T03:29:02;17.20;99.90
54518;DHT22;40423;53.176;6.002;2023-07-13T03:31:34;17.20;99.90
54518;DHT22;40423;53.176;6.002;2023-07-13T03:34:00;17.20;99.90
54518;DHT22;40423;53.176;6.002;2023-07-13T03:36:27;17.10;99.90
54518;DHT22;40423;53.176;6.002;2023-07-13T03:38:56;17.10;99.90
54518;DHT22;40423;53.176;6.002;2023-07-13T03:41:22;17.10;99.90
54518;DHT22;40423;53.176;6.002;2023-07-13T03:43:49;17.10;99.90
54518;DHT22;40423;53.176;6.002;2023-07-13T03:46:16;17.10;99.90
54518;DHT22;40423;53.176;6.002;2023-07-13T03:48:43;17.10;99.90
54518;DHT22;40423;53.176;6.002;2023-07-13T03:51:10;17.00;99.90
54518;DHT22;40423;53.176;6.002;2023-07-13T03:53:41;17.00;99.90
54518;DHT22;40423;53.176;6.002;2023-07-13T03:56:08;17.00;99.90
54518;DHT22;40423;53.176;6.002;2023-07-13T03:58:39;17.00;99.90
54518;DHT22;40423;53.176;6.002;2023-07-13T04:01:06;17.00;99.90
54518;DHT22;40423;53.176;6.002;2023-07-13T04:03:33;17.00;99.90
54518;DHT22;40423;53.176;6.002;2023-07-13T04:06:00;17.00;99.90
54518;DHT22;40423;53.176;6.002;2023-07-13T04:08:31;17.00;99.90
54518;DHT22;40423;53.176;6.002;2023-07-13T04:10:58;17.00;99.90
54518;DHT22;40423;53.176;6.002;2023-07-13T04:13:25;17.00;99.90
54518;DHT22;40423;53.176;6.002;2023-07-13T04:15:52;17.00;99.90
54518;DHT22;40423;53.176;6.002;2023-07-13T04:18:19;17.00;99.90
54518;DHT22;40423;53.176;6.002;2023-07-13T04:20:47;17.00;99.90
54518;DHT22;40423;53.176;6.002;2023-07-13T04:23:13;17.00;99.90
54518;DHT22;40423;53.176;6.002;2023-07-13T04:25:39;17.00;99.90
54518;DHT22;40423;53.176;6.002;2023-07-13T04:28:06;17.00;99.90
54518;DHT22;40423;53.176;6.002;2023-07-13T04:30:32;17.00;99.90
54518;DHT22;40423;53.176;6.002;2023-07-13T04:32:58;17.00;99.90
54518;DHT22;40423;53.176;6.002;2023-07-13T04:35:23;17.00;99.90
54518;DHT22;40423;53.176;6.002;2023-07-13T04:37:49;17.10;99.90
54518;DHT22;40423;53.176;6.002;2023-07-13T04:40:19;17.10;99.90
54518;DHT22;40423;53.176;6.002;2023-07-13T04:42:46;17.00;99.90
54518;DHT22;40423;53.176;6.002;2023-07-13T04:45:13;17.10;99.90
54518;DHT22;40423;53.176;6.002;2023-07-13T04:47:39;17.10;99.90
54518;DHT22;40423;53.176;6.002;2023-07-13T04:50:06;17.10;99.90
54518;DHT22;40423;53.176;6.002;2023-07-13T04:52:31;17.20;99.90
54518;DHT22;40423;53.176;6.002;2023-07-13T04:54:59;17.20;99.90
54518;DHT22;40423;53.176;6.002;2023-07-13T04:57:25;17.20;99.90
54518;DHT22;40423;53.176;6.002;2023-07-13T04:59:51;17.20;99.90
54518;DHT22;40423;53.176;6.002;2023-07-13T05:02:19;17.30;99.90
54518;DHT22;40423;53.176;6.002;2023-07-13T05:04:48;17.30;99.90
54518;DHT22;40423;53.176;6.002;2023-07-13T05:07:14;17.40;99.90
54518;DHT22;40423;53.176;6.002;2023-07-13T05:09:40;17.30;99.90
54518;DHT22;40423;53.176;6.002;2023-07-13T05:12:07;17.40;99.90
54518;DHT22;40423;53.176;6.002;2023-07-13T05:14:34;17.40;99.90
54518;DHT22;40423;53.176;6.002;2023-07-13T05:16:59;17.50;99.90
54518;DHT22;40423;53.176;6.002;2023-07-13T05:19:26;17.50;99.90
54518;DHT22;40423;53.176;6.002;2023-07-13T05:21:52;17.60;99.90
54518;DHT22;40423;53.176;6.002;2023-07-13T05:24:17;17.60;99.90
54518;DHT22;40423;53.176;6.002;2023-07-13T05:26:44;17.60;99.90
54518;DHT22;40423;53.176;6.002;2023-07-13T05:29:09;17.70;99.90
54518;DHT22;40423;53.176;6.002;2023-07-13T05:31:35;17.70;99.90
54518;DHT22;40423;53.176;6.002;2023-07-13T05:34:01;17.80;99.90
54518;DHT22;40423;53.176;6.002;2023-07-13T05:36:26;17.90;99.90
54518;DHT22;40423;53.176;6.002;2023-07-13T05:38:52;17.90;99.90
54518;DHT22;40423;53.176;6.002;2023-07-13T05:41:18;18.00;99.90
54518;DHT22;40423;53.176;6.002;2023-07-13T05:43:44;18.10;99.90
54518;DHT22;40423;53.176;6.002;2023-07-13T05:46:09;18.10;99.90
54518;DHT22;40423;53.176;6.002;2023-07-13T05:48:35;18.20;99.90
54518;DHT22;40423;53.176;6.002;2023-07-13T05:51:01;18.20;99.90
54518;DHT22;40423;53.176;6.002;2023-07-13T05:53:28;18.30;99.90
54518;DHT22;40423;53.176;6.002;2023-07-13T05:55:54;18.40;99.90
54518;DHT22;40423;53.176;6.002;2023-07-13T05:58:21;18.30;99.90
54518;DHT22;40423;53.176;6.002;2023-07-13T06:00:47;18.40;99.90
54518;DHT22;40423;53.176;6.002;2023-07-13T06:03:14;18.40;99.90
54518;DHT22;40423;53.176;6.002;2023-07-13T06:05:40;18.40;99.90
54518;DHT22;40423;53.176;6.002;2023-07-13T06:08:06;18.50;99.90
54518;DHT22;40423;53.176;6.002;2023-07-13T06:10:35;18.50;99.90
54518;DHT22;40423;53.176;6.002;2023-07-13T06:13:01;18.50;99.90
54518;DHT22;40423;53.176;6.002;2023-07-13T06:15:27;18.70;99.90
54518;DHT22;40423;53.176;6.002;2023-07-13T06:17:53;18.70;99.90
54518;DHT22;40423;53.176;6.002;2023-07-13T06:20:19;18.80;99.90
54518;DHT22;40423;53.176;6.002;2023-07-13T06:22:44;18.90;99.90
54518;DHT22;40423;53.176;6.002;2023-07-13T06:25:10;18.90;99.90
54518;DHT22;40423;53.176;6.002;2023-07-13T06:27:36;18.90;99.90
54518;DHT22;40423;53.176;6.002;2023-07-13T06:30:01;18.90;99.90
54518;DHT22;40423;53.176;6.002;2023-07-13T06:32:27;19.00;99.90
54518;DHT22;40423;53.176;6.002;2023-07-13T06:34:53;18.90;99.90
54518;DHT22;40423;53.176;6.002;2023-07-13T06:37:18;19.00;99.90
54518;DHT22;40423;53.176;6.002;2023-07-13T06:39:44;19.10;99.90
54518;DHT22;40423;53.176;6.002;2023-07-13T06:42:10;19.30;99.90
54518;DHT22;40423;53.176;6.002;2023-07-13T06:44:36;19.30;99.90
54518;DHT22;40423;53.176;6.002;2023-07-13T06:47:02;19.40;99.90
54518;DHT22;40423;53.176;6.002;2023-07-13T06:49:28;19.50;99.90
54518;DHT22;40423;53.176;6.002;2023-07-13T06:51:54;19.60;99.90
54518;DHT22;40423;53.176;6.002;2023-07-13T06:54:19;19.60;99.90
54518;DHT22;40423;53.176;6.002;2023-07-13T06:56:45;19.60;99.90
54518;DHT22;40423;53.176;6.002;2023-07-13T06:59:11;19.60;99.90
54518;DHT22;40423;53.176;6.002;2023-07-13T07:01:37;19.80;99.90
54518;DHT22;40423;53.176;6.002;2023-07-13T07:04:03;19.80;99.90
54518;DHT22;40423;53.176;6.002;2023-07-13T07:06:29;19.90;99.90
54518;DHT22;40423;53.176;6.002;2023-07-13T07:08:55;19.90;99.90
54518;DHT22;40423;53.176;6.002;2023-07-13T07:11:25;19.90;99.90
54518;DHT22;40423;53.176;6.002;2023-07-13T07:13:52;19.90;99.90
54518;DHT22;40423;53.176;6.002;2023-07-13T07:16:19;19.80;99.90
54518;DHT22;40423;53.176;6.002;2023-07-13T07:18:45;19.70;99.90
54518;DHT22;40423;53.176;6.002;2023-07-13T07:21:11;19.70;99.90
54518;DHT22;40423;53.176;6.002;2023-07-13T07:23:37;19.70;99.90
54518;DHT22;40423;53.176;6.002;2023-07-13T07:26:03;19.70;99.90
54518;DHT22;40423;53.176;6.002;2023-07-13T07:28:29;19.50;99.90
54518;DHT22;40423;53.176;6.002;2023-07-13T07:30:56;19.60;99.90
54518;DHT22;40423;53.176;6.002;2023-07-13T07:33:23;19.60;99.90
54518;DHT22;40423;53.176;6.002;2023-07-13T07:35:49;19.70;99.90
54518;DHT22;40423;53.176;6.002;2023-07-13T07:38:15;19.60;99.90
54518;DHT22;40423;53.176;6.002;2023-07-13T07:40:41;19.40;99.90
54518;DHT22;40423;53.176;6.002;2023-07-13T07:43:08;19.50;99.90
54518;DHT22;40423;53.176;6.002;2023-07-13T08:24:24;19.60;99.90
54518;DHT22;40423;53.176;6.002;2023-07-13T08:26:51;19.50;99.90
54518;DHT22;40423;53.176;6.002;2023-07-13T08:29:17;19.70;99.90
54518;DHT22;40423;53.176;6.002;2023-07-13T08:31:43;20.00;99.90
54518;DHT22;40423;53.176;6.002;2023-07-13T08:34:09;20.30;99.90
54518;DHT22;40423;53.176;6.002;2023-07-13T08:36:34;20.40;99.90
54518;DHT22;40423;53.176;6.002;2023-07-13T08:39:00;20.50;99.80
54518;DHT22;40423;53.176;6.002;2023-07-13T08:41:26;20.60;99.90
54518;DHT22;40423;53.176;6.002;2023-07-13T08:43:57;20.90;99.90
54518;DHT22;40423;53.176;6.002;2023-07-13T08:46:24;21.00;99.90
54518;DHT22;40423;53.176;6.002;2023-07-13T08:48:52;21.20;99.90
54518;DHT22;40423;53.176;6.002;2023-07-13T08:51:47;21.40;99.70
54518;DHT22;40423;53.176;6.002;2023-07-13T08:56:57;20.90;98.20
54518;DHT22;40423;53.176;6.002;2023-07-13T08:59:27;20.90;98.40
54518;DHT22;40423;53.176;6.002;2023-07-13T09:02:07;20.80;97.80
54518;DHT22;40423;53.176;6.002;2023-07-13T09:04:45;21.00;96.90
54518;DHT22;40423;53.176;6.002;2023-07-13T09:07:23;21.30;96.60
54518;DHT22;40423;53.176;6.002;2023-07-13T09:12:45;21.60;96.40
54518;DHT22;40423;53.176;6.002;2023-07-13T09:15:30;21.40;96.00
54518;DHT22;40423;53.176;6.002;2023-07-13T09:18:21;21.20;96.40
54518;DHT22;40423;53.176;6.002;2023-07-13T09:21:10;21.30;96.00
54518;DHT22;40423;53.176;6.002;2023-07-13T09:23:38;21.30;96.50
54518;DHT22;40423;53.176;6.002;2023-07-13T09:26:21;21.40;96.50
54518;DHT22;40423;53.176;6.002;2023-07-13T09:28:51;21.10;96.40
54518;DHT22;40423;53.176;6.002;2023-07-13T09:31:42;21.10;96.80
54518;DHT22;40423;53.176;6.002;2023-07-13T09:34:11;21.20;97.00
54518;DHT22;40423;53.176;6.002;2023-07-13T09:36:38;21.20;95.80
54518;DHT22;40423;53.176;6.002;2023-07-13T09:39:25;21.40;96.40
54518;DHT22;40423;53.176;6.002;2023-07-13T09:47:25;21.30;95.90
54518;DHT22;40423;53.176;6.002;2023-07-13T09:49:58;21.10;96.50
54518;DHT22;40423;53.176;6.002;2023-07-13T09:52:25;20.90;96.80
54518;DHT22;40423;53.176;6.002;2023-07-13T09:54:54;20.70;96.70
54518;DHT22;40423;53.176;6.002;2023-07-13T09:57:26;20.90;97.00
54518;DHT22;40423;53.176;6.002;2023-07-13T09:59:53;21.10;96.70
54518;DHT22;40423;53.176;6.002;2023-07-13T10:07:29;21.00;96.30
54518;DHT22;40423;53.176;6.002;2023-07-13T10:09:56;21.20;96.00
54518;DHT22;40423;53.176;6.002;2023-07-13T10:12:23;21.20;95.10
54518;DHT22;40423;53.176;6.002;2023-07-13T10:14:55;21.30;95.10
54518;DHT22;40423;53.176;6.002;2023-07-13T10:17:32;21.50;94.80
54518;DHT22;40423;53.176;6.002;2023-07-13T10:20:03;21.60;94.80
54518;DHT22;40423;53.176;6.002;2023-07-13T10:23:11;21.70;94.70
54518;DHT22;40423;53.176;6.002;2023-07-13T10:25:39;21.80;94.50
54518;DHT22;40423;53.176;6.002;2023-07-13T10:28:36;21.70;94.50
54518;DHT22;40423;53.176;6.002;2023-07-13T10:31:01;21.80;94.90
54518;DHT22;40423;53.176;6.002;2023-07-13T10:33:28;21.60;95.10
54518;DHT22;40423;53.176;6.002;2023-07-13T10:36:14;21.80;95.50
54518;DHT22;40423;53.176;6.002;2023-07-13T10:38:41;22.00;95.30
54518;DHT22;40423;53.176;6.002;2023-07-13T10:41:11;22.20;95.00
54518;DHT22;40423;53.176;6.002;2023-07-13T10:43:46;22.10;95.00
54518;DHT22;40423;53.176;6.002;2023-07-13T10:46:17;22.40;94.80
54518;DHT22;40423;53.176;6.002;2023-07-13T10:48:48;22.50;94.50
54518;DHT22;40423;53.176;6.002;2023-07-13T10:51:17;22.60;94.90
54518;DHT22;40423;53.176;6.002;2023-07-13T10:53:43;22.40;94.30
54518;DHT22;40423;53.176;6.002;2023-07-13T10:56:24;22.30;94.90
54518;DHT22;40423;53.176;6.002;2023-07-13T11:02:08;21.80;95.20
54518;DHT22;40423;53.176;6.002;2023-07-13T11:04:27;22.00;94.50
54518;DHT22;40423;53.176;6.002;2023-07-13T11:06:59;22.10;94.00
54518;DHT22;40423;53.176;6.002;2023-07-13T11:09:33;22.20;93.40
54518;DHT22;40423;53.176;6.002;2023-07-13T11:12:00;22.30;94.20
54518;DHT22;40423;53.176;6.002;2023-07-13T11:22:47;21.70;93.90
54518;DHT22;40423;53.176;6.002;2023-07-13T11:27:51;21.80;94.20
54518;DHT22;40423;53.176;6.002;2023-07-13T11:30:22;21.90;94.20
54518;DHT22;40423;53.176;6.002;2023-07-13T11:32:51;22.10;94.70
54518;DHT22;40423;53.176;6.002;2023-07-13T11:35:28;22.30;94.50
54518;DHT22;40423;53.176;6.002;2023-07-13T11:37:54;22.50;93.50
54518;DHT22;40423;53.176;6.002;2023-07-13T11:40:22;22.50;94.00
54518;DHT22;40423;53.176;6.002;2023-07-13T11:42:52;22.70;94.20
54518;DHT22;40423;53.176;6.002;2023-07-13T11:45:22;22.70;93.90
54518;DHT22;40423;53.176;6.002;2023-07-13T11:47:49;22.50;93.50
54518;DHT22;40423;53.176;6.002;2023-07-13T11:50:23;22.60;93.80
54518;DHT22;40423;53.176;6.002;2023-07-13T11:52:51;22.80;93.60
54518;DHT22;40423;53.176;6.002;2023-07-13T11:55:21;22.50;93.30
54518;DHT22;40423;53.176;6.002;2023-07-13T11:58:01;22.70;93.50
54518;DHT22;40423;53.176;6.002;2023-07-13T12:00:32;22.50;92.40
54518;DHT22;40423;53.176;6.002;2023-07-13T12:03:04;22.60;92.90
54518;DHT22;40423;53.176;6.002;2023-07-13T12:05:30;22.70;93.00
54518;DHT22;40423;53.176;6.002;2023-07-13T12:07:58;22.80;93.70
54518;DHT22;40423;53.176;6.002;2023-07-13T12:10:28;22.50;92.80
54518;DHT22;40423;53.176;6.002;2023-07-13T12:13:03;22.70;93.70
54518;DHT22;40423;53.176;6.002;2023-07-13T12:15:43;22.50;92.80
54518;DHT22;40423;53.176;6.002;2023-07-13T12:18:20;22.70;92.20
54518;DHT22;40423;53.176;6.002;2023-07-13T12:20:47;22.60;92.50
54518;DHT22;40423;53.176;6.002;2023-07-13T12:25:51;22.50;92.60
54518;DHT22;40423;53.176;6.002;2023-07-13T12:31:06;22.90;92.50
54518;DHT22;40423;53.176;6.002;2023-07-13T12:33:33;23.00;92.20
54518;DHT22;40423;53.176;6.002;2023-07-13T12:36:05;22.60;91.50
54518;DHT22;40423;53.176;6.002;2023-07-13T12:38:32;22.50;92.50
54518;DHT22;40423;53.176;6.002;2023-07-13T12:40:58;22.50;92.40
54518;DHT22;40423;53.176;6.002;2023-07-13T12:43:25;22.70;92.60
54518;DHT22;40423;53.176;6.002;2023-07-13T12:46:02;22.40;92.40
54518;DHT22;40423;53.176;6.002;2023-07-13T12:48:27;22.60;93.30
54518;DHT22;40423;53.176;6.002;2023-07-13T12:50:55;22.80;93.20
54518;DHT22;40423;53.176;6.002;2023-07-13T12:53:29;23.10;93.10
54518;DHT22;40423;53.176;6.002;2023-07-13T12:55:58;22.90;93.60
54518;DHT22;40423;53.176;6.002;2023-07-13T12:58:35;22.60;93.90
54518;DHT22;40423;53.176;6.002;2023-07-13T13:01:02;22.80;94.50
54518;DHT22;40423;53.176;6.002;2023-07-13T13:06:03;22.90;93.90
54518;DHT22;40423;53.176;6.002;2023-07-13T13:08:39;22.70;94.20
54518;DHT22;40423;53.176;6.002;2023-07-13T13:11:06;22.30;94.40
54518;DHT22;40423;53.176;6.002;2023-07-13T13:13:32;22.20;95.10
54518;DHT22;40423;53.176;6.002;2023-07-13T13:16:04;22.10;94.90
54518;DHT22;40423;53.176;6.002;2023-07-13T13:18:31;21.60;95.40
54518;DHT22;40423;53.176;6.002;2023-07-13T13:20:57;21.60;95.70
54518;DHT22;40423;53.176;6.002;2023-07-13T13:23:23;21.50;95.20
54518;DHT22;40423;53.176;6.002;2023-07-13T13:25:51;21.50;95.90
54518;DHT22;40423;53.176;6.002;2023-07-13T13:28:19;21.80;95.90
54518;DHT22;40423;53.176;6.002;2023-07-13T13:30:47;21.80;95.60
54518;DHT22;40423;53.176;6.002;2023-07-13T13:33:15;21.90;95.40
54518;DHT22;40423;53.176;6.002;2023-07-13T13:35:42;22.00;95.10
54518;DHT22;40423;53.176;6.002;2023-07-13T13:38:20;21.90;94.70
54518;DHT22;40423;53.176;6.002;2023-07-13T13:40:46;22.10;94.90
54518;DHT22;40423;53.176;6.002;2023-07-13T13:43:24;22.00;94.60
54518;DHT22;40423;53.176;6.002;2023-07-13T13:45:57;22.10;94.40
54518;DHT22;40423;53.176;6.002;2023-07-13T13:48:32;22.20;94.50
54518;DHT22;40423;53.176;6.002;2023-07-13T13:50:58;21.80;93.30
54518;DHT22;40423;53.176;6.002;2023-07-13T13:53:25;21.60;94.40
54518;DHT22;40423;53.176;6.002;2023-07-13T13:55:51;21.90;94.40
54518;DHT22;40423;53.176;6.002;2023-07-13T13:58:18;21.80;94.40
54518;DHT22;40423;53.176;6.002;2023-07-13T14:00:44;22.10;94.50
54518;DHT22;40423;53.176;6.002;2023-07-13T14:03:21;22.30;94.30
54518;DHT22;40423;53.176;6.002;2023-07-13T14:05:48;22.70;94.00
54518;DHT22;40423;53.176;6.002;2023-07-13T14:08:19;22.80;93.50
54518;DHT22;40423;53.176;6.002;2023-07-13T14:10:46;23.00;93.40
54518;DHT22;40423;53.176;6.002;2023-07-13T14:13:28;23.20;92.50
54518;DHT22;40423;53.176;6.002;2023-07-13T14:15:55;23.20;92.60
54518;DHT22;40423;53.176;6.002;2023-07-13T14:18:21;23.40;92.60
54518;DHT22;40423;53.176;6.002;2023-07-13T14:20:47;23.50;93.20
54518;DHT22;40423;53.176;6.002;2023-07-13T14:23:14;23.10;93.30
54518;DHT22;40423;53.176;6.002;2023-07-13T14:25:41;22.70;94.00
54518;DHT22;40423;53.176;6.002;2023-07-13T14:30:48;22.50;93.80
54518;DHT22;40423;53.176;6.002;2023-07-13T14:33:14;21.80;94.80
54518;DHT22;40423;53.176;6.002;2023-07-13T14:35:40;21.70;95.00
54518;DHT22;40423;53.176;6.002;2023-07-13T14:38:14;21.60;95.30
54518;DHT22;40423;53.176;6.002;2023-07-13T14:40:41;21.80;95.10
54518;DHT22;40423;53.176;6.002;2023-07-13T14:43:14;22.30;95.20
54518;DHT22;40423;53.176;6.002;2023-07-13T14:45:41;22.80;94.90
54518;DHT22;40423;53.176;6.002;2023-07-13T14:48:19;23.00;94.40
54518;DHT22;40423;53.176;6.002;2023-07-13T14:50:46;22.90;94.00
54518;DHT22;40423;53.176;6.002;2023-07-13T14:53:13;22.50;94.30
54518;DHT22;40423;53.176;6.002;2023-07-13T14:55:39;22.20;93.90
54518;DHT22;40423;53.176;6.002;2023-07-13T14:58:05;21.90;93.60
54518;DHT22;40423;53.176;6.002;2023-07-13T15:00:31;21.90;93.60
54518;DHT22;40423;53.176;6.002;2023-07-13T15:02:59;21.70;93.40
54518;DHT22;40423;53.176;6.002;2023-07-13T15:05:29;21.70;93.90
54518;DHT22;40423;53.176;6.002;2023-07-13T15:07:58;21.90;94.40
54518;DHT22;40423;53.176;6.002;2023-07-13T15:10:30;22.30;94.70
54518;DHT22;40423;53.176;6.002;2023-07-13T15:15:40;22.50;94.80
54518;DHT22;40423;53.176;6.002;2023-07-13T15:18:13;22.60;94.40
54518;DHT22;40423;53.176;6.002;2023-07-13T15:20:39;22.40;94.40
54518;DHT22;40423;53.176;6.002;2023-07-13T15:23:05;22.20;95.10
54518;DHT22;40423;53.176;6.002;2023-07-13T15:25:33;22.30;94.90
54518;DHT22;40423;53.176;6.002;2023-07-13T15:28:00;22.10;94.90
54518;DHT22;40423;53.176;6.002;2023-07-13T15:30:29;22.00;94.90
54518;DHT22;40423;53.176;6.002;2023-07-13T15:33:00;21.90;94.80
54518;DHT22;40423;53.176;6.002;2023-07-13T15:35:28;21.90;94.80
54518;DHT22;40423;53.176;6.002;2023-07-13T15:37:54;21.80;95.10
54518;DHT22;40423;53.176;6.002;2023-07-13T15:40:20;21.60;95.30
54518;DHT22;40423;53.176;6.002;2023-07-13T15:42:50;21.80;95.50
54518;DHT22;40423;53.176;6.002;2023-07-13T15:45:20;21.90;95.50
54518;DHT22;40423;53.176;6.002;2023-07-13T15:47:47;21.90;95.10
54518;DHT22;40423;53.176;6.002;2023-07-13T15:50:21;21.80;95.30
54518;DHT22;40423;53.176;6.002;2023-07-13T15:52:52;21.80;95.40
54518;DHT22;40423;53.176;6.002;2023-07-13T15:55:19;21.80;95.40
54518;DHT22;40423;53.176;6.002;2023-07-13T15:57:49;21.70;95.50
54518;DHT22;40423;53.176;6.002;2023-07-13T16:02:46;21.50;95.70
54518;DHT22;40423;53.176;6.002;2023-07-13T16:05:12;21.40;95.80
54518;DHT22;40423;53.176;6.002;2023-07-13T16:07:38;21.50;95.70
54518;DHT22;40423;53.176;6.002;2023-07-13T16:10:04;21.20;95.60
54518;DHT22;40423;53.176;6.002;2023-07-13T16:12:30;21.20;96.30
54518;DHT22;40423;53.176;6.002;2023-07-13T16:14:56;21.40;96.30
54518;DHT22;40423;53.176;6.002;2023-07-13T16:17:22;21.50;96.10
54518;DHT22;40423;53.176;6.002;2023-07-13T16:19:47;21.30;96.10
54518;DHT22;40423;53.176;6.002;2023-07-13T16:22:18;21.50;96.10
54518;DHT22;40423;53.176;6.002;2023-07-13T16:24:45;21.50;95.90
54518;DHT22;40423;53.176;6.002;2023-07-13T16:27:13;21.40;96.20
54518;DHT22;40423;53.176;6.002;2023-07-13T16:29:40;21.40;96.20
54518;DHT22;40423;53.176;6.002;2023-07-13T16:32:12;21.40;96.40
54518;DHT22;40423;53.176;6.002;2023-07-13T16:34:39;21.40;96.40
54518;DHT22;40423;53.176;6.002;2023-07-13T16:37:21;21.30;96.70
54518;DHT22;40423;53.176;6.002;2023-07-13T16:39:52;21.30;96.70
54518;DHT22;40423;53.176;6.002;2023-07-13T16:42:21;21.40;96.90
54518;DHT22;40423;53.176;6.002;2023-07-13T16:44:47;21.40;96.50
54518;DHT22;40423;53.176;6.002;2023-07-13T16:47:14;21.50;96.60
54518;DHT22;40423;53.176;6.002;2023-07-13T16:49:41;21.60;95.90
54518;DHT22;40423;53.176;6.002;2023-07-13T16:52:13;21.60;96.10
54518;DHT22;40423;53.176;6.002;2023-07-13T16:54:39;21.30;96.30
54518;DHT22;40423;53.176;6.002;2023-07-13T16:57:17;21.20;96.70
54518;DHT22;40423;53.176;6.002;2023-07-13T16:59:45;21.30;97.00
54518;DHT22;40423;53.176;6.002;2023-07-13T17:04:52;21.50;97.00